Terminal Aerodrome Forecast
Issued by NWS

Home | Current Version | Previous Version | Graphics & Text | Print | Product List | Glossary On
Versions: 1 2 3 4 5 6 7 8 9 10 11 12 13 14 15 16 17
000
FTUS43 KMPX 242200 AAA
TAFRNH
TAF AMD
KRNH 242235Z 2423/2518 14010KT P6SM VCTS BKN035CB BKN080
      TEMPO 2423/2502 2SM TSRA BKN020CB
     FM250200 18004KT P6SM VCTS SCT030CB BKN050
     FM250500 21004KT P6SM SCT030 BKN100
     FM251400 24007KT P6SM SCT025=

USA.gov is the U.S. government's official web portal to all federal, state and local government web resources and services.